ADDS METAR Data INFO
IDs: Format: Raw Decoded Include TAF

Data at: 1021 UTC 12 Dec 2017

KELY 120953Z AUTO 17011KT 10SM CLR M12/M22 A3057 RMK AO2 SLP362 T11171217 $
KELY 120853Z AUTO 17010KT CLR M11/M22 A3056 RMK AO2 SLP361 T11061222 50000 $
KELY 120753Z AUTO 17012KT 10SM CLR M10/M22 A3057 RMK AO2 SLP366 T11001217 401001167 $
KELY 120653Z AUTO 17009KT 10SM CLR M10/M22 A3057 RMK AO2 SLP374 T11001222 $
KELY 120553Z AUTO 17010KT 10SM CLR M09/M23 A3056 RMK AO2 SLP384 T10941228 10028 21094 51008 $
KELY 120453Z AUTO 17010KT 10SM CLR M09/M22 A3056 RMK AO2 SLP400 T10891222 $
KELY 120353Z AUTO 17012KT 10SM CLR M08/M22 A3055 RMK AO2 SLP414 T10781222 $
KELY 120253Z AUTO 17009KT 10SM CLR M07/M21 A3054 RMK AO2 SLP413 T10721206 53012 $
KELY 120153Z AUTO 17006KT 10SM CLR M07/M22 A3052 RMK AO2 SLP409 T10721217 $
KELY 120053Z AUTO 17007KT 10SM CLR M05/M21 A3050 RMK AO2 SLP396 T10501211 $
KELY 112353Z AUTO 00000KT 10SM CLR 03/M21 A3049 RMK AO2 SLP369 T00281206 10100 20006 53001 $
KELY 112253Z AUTO 34005KT 10SM CLR 09/M19 A3048 RMK AO2 SLP342 T00891189 $
KELY 112153Z AUTO 35006KT 10SM CLR 10/M23 A3048 RMK AO2 SLP342 T01001233 $
KELY 112053Z AUTO 36005KT 10SM CLR 09/M24 A3049 RMK AO2 SLP341 T00941239 56023 $
KELY 111953Z AUTO VRB04KT 10SM CLR 07/M21 A3051 RMK AO2 SLP352 T00721206 $
KELY 111853Z AUTO 00000KT 10SM CLR 05/M18 A3054 RMK AO2 SLP370 T00501183 $
KELY 111753Z AUTO 17003KT 10SM CLR 01/M18 A3057 RMK AO2 SLP389 T00061183 10006 21167 50003 $
KELY 111653Z AUTO 17007KT 10SM CLR M06/M19 A3057 RMK AO2 SLP404 T10611194
KELY 111553Z AUTO 17008KT 10SM CLR M13/M22 A3057 RMK AO2 SLP426 T11331222
KELY 111453Z AUTO 18011KT 10SM CLR M16/M23 A3056 RMK AO2 SLP429 T11561233 53004
KELY 111353Z AUTO 18010KT 10SM CLR M16/M23 A3055 RMK AO2 SLP426 T11561233
KELY 111253Z AUTO 18014KT 10SM CLR M16/M23 A3054 RMK AO2 SLP391 T11561233
KELY 111153Z AUTO 18010KT 10SM CLR M15/M23 A3055 RMK AO2 SLP381 T11501228 11106 21156 58002
KELY 111053Z AUTO 18011KT 10SM CLR M14/M22 A3055 RMK AO2 SLP366 T11391222
KELY 110953Z AUTO 17012KT 10SM CLR M14/M22 A3056 RMK AO2 SLP368 T11441222
KELY 110853Z AUTO 17013KT 10SM CLR M13/M22 A3055 RMK AO2 SLP367 T11281217 58003
KELY 110753Z AUTO 17012KT 10SM CLR M12/M22 A3056 RMK AO2 SLP369 T11221222 400941161
KELY 110653Z AUTO 18009KT 10SM CLR M12/M21 A3057 RMK AO2 SLP378 T11171211
KELY 110553Z AUTO 17009KT 10SM CLR M11/M21 A3057 RMK AO2 SLP388 T11061211 10033 21111 53006
KELY 110453Z AUTO 18006KT 10SM CLR M08/M21 A3055 RMK AO2 SLP387 T10831206
KELY 110353Z AUTO 17011KT 10SM CLR M09/M19 A3054 RMK AO2 SLP410 T10891194
KELY 110253Z AUTO 16010KT 10SM CLR M09/M19 A3054 RMK AO2 SLP419 T10941189 51010
KELY 110153Z AUTO 16004KT 10SM CLR M09/M20 A3054 RMK AO2 SLP417 T10891200
KELY 110053Z AUTO 36004KT 10SM CLR 02/M17 A3052 RMK AO2 SLP380 T00221172
KELY 102353Z AUTO 27003KT 10SM CLR 04/M19 A3051 RMK AO2 SLP364 T00441189 10094 20006 56006
KELY 102253Z AUTO 36008KT 10SM CLR 09/M18 A3051 RMK AO2 SLP351 T00891178